sensor_id;sensor_type;location;lat;lon;timestamp;P1;durP1;ratioP1;P2;durP2;ratioP2
51724;SDS011;37801;53.224;6.552;2023-03-01T00:01:25;15.55;;;9.43;;
51724;SDS011;37801;53.224;6.552;2023-03-01T00:03:51;15.10;;;8.77;;
51724;SDS011;37801;53.224;6.552;2023-03-01T00:06:18;14.02;;;8.70;;
51724;SDS011;37801;53.224;6.552;2023-03-01T00:08:44;14.52;;;8.48;;
51724;SDS011;37801;53.224;6.552;2023-03-01T00:11:18;13.05;;;8.45;;
51724;SDS011;37801;53.224;6.552;2023-03-01T00:16:12;15.13;;;8.20;;
51724;SDS011;37801;53.224;6.552;2023-03-01T00:18:38;15.73;;;8.88;;
51724;SDS011;37801;53.224;6.552;2023-03-01T00:21:05;14.15;;;8.75;;
51724;SDS011;37801;53.224;6.552;2023-03-01T00:23:31;15.80;;;9.30;;
51724;SDS011;37801;53.224;6.552;2023-03-01T00:25:57;15.95;;;9.02;;
51724;SDS011;37801;53.224;6.552;2023-03-01T00:28:23;15.32;;;8.75;;
51724;SDS011;37801;53.224;6.552;2023-03-01T00:30:50;14.48;;;8.60;;
51724;SDS011;37801;53.224;6.552;2023-03-01T00:33:16;13.63;;;9.32;;
51724;SDS011;37801;53.224;6.552;2023-03-01T00:35:42;14.98;;;9.60;;
51724;SDS011;37801;53.224;6.552;2023-03-01T00:38:08;14.50;;;9.20;;
51724;SDS011;37801;53.224;6.552;2023-03-01T00:40:34;14.48;;;9.07;;
51724;SDS011;37801;53.224;6.552;2023-03-01T00:43:01;13.68;;;8.90;;
51724;SDS011;37801;53.224;6.552;2023-03-01T00:45:28;16.13;;;9.57;;
51724;SDS011;37801;53.224;6.552;2023-03-01T00:47:56;14.48;;;9.20;;
51724;SDS011;37801;53.224;6.552;2023-03-01T00:50:23;16.98;;;9.65;;
51724;SDS011;37801;53.224;6.552;2023-03-01T00:52:55;14.63;;;8.63;;
51724;SDS011;37801;53.224;6.552;2023-03-01T00:55:22;15.40;;;9.65;;
51724;SDS011;37801;53.224;6.552;2023-03-01T00:57:48;13.73;;;8.75;;
51724;SDS011;37801;53.224;6.552;2023-03-01T01:00:14;15.68;;;9.07;;
51724;SDS011;37801;53.224;6.552;2023-03-01T01:02:41;15.50;;;9.25;;
51724;SDS011;37801;53.224;6.552;2023-03-01T01:05:07;15.57;;;9.90;;
51724;SDS011;37801;53.224;6.552;2023-03-01T01:07:33;15.18;;;9.93;;
51724;SDS011;37801;53.224;6.552;2023-03-01T01:09:59;15.70;;;9.38;;
51724;SDS011;37801;53.224;6.552;2023-03-01T01:12:25;13.90;;;8.85;;
51724;SDS011;37801;53.224;6.552;2023-03-01T01:14:51;17.00;;;9.93;;
51724;SDS011;37801;53.224;6.552;2023-03-01T01:17:18;15.73;;;9.43;;
51724;SDS011;37801;53.224;6.552;2023-03-01T01:19:44;15.98;;;9.77;;
51724;SDS011;37801;53.224;6.552;2023-03-01T01:22:10;15.07;;;9.57;;
51724;SDS011;37801;53.224;6.552;2023-03-01T01:24:36;16.85;;;9.60;;
51724;SDS011;37801;53.224;6.552;2023-03-01T01:27:02;17.88;;;10.32;;
51724;SDS011;37801;53.224;6.552;2023-03-01T01:29:28;17.23;;;9.98;;
51724;SDS011;37801;53.224;6.552;2023-03-01T01:31:55;15.20;;;9.98;;
51724;SDS011;37801;53.224;6.552;2023-03-01T01:34:21;17.17;;;10.57;;
51724;SDS011;37801;53.224;6.552;2023-03-01T01:36:48;19.45;;;10.80;;
51724;SDS011;37801;53.224;6.552;2023-03-01T01:39:15;17.20;;;10.65;;
51724;SDS011;37801;53.224;6.552;2023-03-01T01:41:41;17.55;;;10.30;;
51724;SDS011;37801;53.224;6.552;2023-03-01T01:44:21;17.17;;;10.77;;
51724;SDS011;37801;53.224;6.552;2023-03-01T01:47:02;17.95;;;10.65;;
51724;SDS011;37801;53.224;6.552;2023-03-01T01:52:16;18.63;;;10.90;;
51724;SDS011;37801;53.224;6.552;2023-03-01T01:57:43;19.35;;;11.30;;
51724;SDS011;37801;53.224;6.552;2023-03-01T02:00:06;22.60;;;11.88;;
51724;SDS011;37801;53.224;6.552;2023-03-01T02:02:33;20.77;;;11.70;;
51724;SDS011;37801;53.224;6.552;2023-03-01T02:05:20;17.42;;;10.68;;
51724;SDS011;37801;53.224;6.552;2023-03-01T02:07:47;18.95;;;11.55;;
51724;SDS011;37801;53.224;6.552;2023-03-01T02:10:14;18.67;;;11.30;;
51724;SDS011;37801;53.224;6.552;2023-03-01T02:12:41;17.92;;;10.57;;
51724;SDS011;37801;53.224;6.552;2023-03-01T02:15:07;19.80;;;11.77;;
51724;SDS011;37801;53.224;6.552;2023-03-01T02:17:33;20.27;;;12.25;;
51724;SDS011;37801;53.224;6.552;2023-03-01T02:22:38;17.13;;;10.95;;
51724;SDS011;37801;53.224;6.552;2023-03-01T02:30:46;17.25;;;9.73;;
51724;SDS011;37801;53.224;6.552;2023-03-01T02:33:31;13.68;;;9.48;;
51724;SDS011;37801;53.224;6.552;2023-03-01T02:36:03;17.63;;;10.38;;
51724;SDS011;37801;53.224;6.552;2023-03-01T02:38:30;15.63;;;9.50;;
51724;SDS011;37801;53.224;6.552;2023-03-01T02:40:58;15.23;;;9.48;;
51724;SDS011;37801;53.224;6.552;2023-03-01T02:43:25;16.55;;;9.02;;
51724;SDS011;37801;53.224;6.552;2023-03-01T02:45:57;15.40;;;8.98;;
51724;SDS011;37801;53.224;6.552;2023-03-01T02:48:23;15.48;;;9.32;;
51724;SDS011;37801;53.224;6.552;2023-03-01T02:50:56;14.60;;;8.98;;
51724;SDS011;37801;53.224;6.552;2023-03-01T02:53:39;13.07;;;8.18;;
51724;SDS011;37801;53.224;6.552;2023-03-01T02:56:06;13.27;;;8.77;;
51724;SDS011;37801;53.224;6.552;2023-03-01T02:58:38;15.43;;;8.85;;
51724;SDS011;37801;53.224;6.552;2023-03-01T03:01:11;12.35;;;7.70;;
51724;SDS011;37801;53.224;6.552;2023-03-01T03:03:38;13.55;;;7.80;;
51724;SDS011;37801;53.224;6.552;2023-03-01T03:06:04;11.02;;;7.65;;
51724;SDS011;37801;53.224;6.552;2023-03-01T03:08:30;11.68;;;7.25;;
51724;SDS011;37801;53.224;6.552;2023-03-01T03:10:56;12.23;;;7.47;;
51724;SDS011;37801;53.224;6.552;2023-03-01T03:13:23;12.43;;;7.22;;
51724;SDS011;37801;53.224;6.552;2023-03-01T03:15:53;12.38;;;7.50;;
51724;SDS011;37801;53.224;6.552;2023-03-01T03:18:20;11.43;;;7.38;;
51724;SDS011;37801;53.224;6.552;2023-03-01T03:20:46;14.40;;;8.20;;
51724;SDS011;37801;53.224;6.552;2023-03-01T03:23:12;10.00;;;6.50;;
51724;SDS011;37801;53.224;6.552;2023-03-01T03:25:39;11.90;;;7.50;;
51724;SDS011;37801;53.224;6.552;2023-03-01T03:28:05;12.88;;;7.43;;
51724;SDS011;37801;53.224;6.552;2023-03-01T03:30:35;10.63;;;7.13;;
51724;SDS011;37801;53.224;6.552;2023-03-01T03:33:01;12.25;;;7.45;;
51724;SDS011;37801;53.224;6.552;2023-03-01T03:35:29;12.07;;;7.00;;
51724;SDS011;37801;53.224;6.552;2023-03-01T03:37:56;11.18;;;7.20;;
51724;SDS011;37801;53.224;6.552;2023-03-01T03:40:35;12.27;;;7.38;;
51724;SDS011;37801;53.224;6.552;2023-03-01T03:43:02;12.93;;;7.07;;
51724;SDS011;37801;53.224;6.552;2023-03-01T03:45:28;11.18;;;6.55;;
51724;SDS011;37801;53.224;6.552;2023-03-01T03:47:54;11.20;;;6.63;;
51724;SDS011;37801;53.224;6.552;2023-03-01T03:50:21;8.90;;;6.07;;
51724;SDS011;37801;53.224;6.552;2023-03-01T03:52:47;10.05;;;6.68;;
51724;SDS011;37801;53.224;6.552;2023-03-01T03:55:13;10.23;;;6.80;;
51724;SDS011;37801;53.224;6.552;2023-03-01T03:57:44;10.70;;;6.30;;
51724;SDS011;37801;53.224;6.552;2023-03-01T04:00:19;11.05;;;6.55;;
51724;SDS011;37801;53.224;6.552;2023-03-01T04:02:46;12.20;;;6.60;;
51724;SDS011;37801;53.224;6.552;2023-03-01T04:05:13;10.75;;;6.63;;
51724;SDS011;37801;53.224;6.552;2023-03-01T04:07:41;10.93;;;6.15;;
51724;SDS011;37801;53.224;6.552;2023-03-01T04:10:09;10.23;;;6.15;;
51724;SDS011;37801;53.224;6.552;2023-03-01T04:12:36;9.63;;;6.43;;
51724;SDS011;37801;53.224;6.552;2023-03-01T04:15:03;10.38;;;6.40;;
51724;SDS011;37801;53.224;6.552;2023-03-01T04:17:38;8.98;;;5.82;;
51724;SDS011;37801;53.224;6.552;2023-03-01T04:20:08;8.40;;;5.68;;
51724;SDS011;37801;53.224;6.552;2023-03-01T04:22:36;9.23;;;5.85;;
51724;SDS011;37801;53.224;6.552;2023-03-01T04:25:02;8.25;;;5.28;;
51724;SDS011;37801;53.224;6.552;2023-03-01T04:27:31;8.57;;;5.65;;
51724;SDS011;37801;53.224;6.552;2023-03-01T04:29:58;8.30;;;5.43;;
51724;SDS011;37801;53.224;6.552;2023-03-01T04:32:23;7.43;;;4.97;;
51724;SDS011;37801;53.224;6.552;2023-03-01T04:34:49;8.23;;;5.10;;
51724;SDS011;37801;53.224;6.552;2023-03-01T04:37:15;7.57;;;4.65;;
51724;SDS011;37801;53.224;6.552;2023-03-01T04:39:41;8.02;;;5.15;;
51724;SDS011;37801;53.224;6.552;2023-03-01T04:42:14;7.32;;;4.85;;
51724;SDS011;37801;53.224;6.552;2023-03-01T04:44:40;7.20;;;4.85;;
51724;SDS011;37801;53.224;6.552;2023-03-01T04:47:06;6.40;;;4.43;;
51724;SDS011;37801;53.224;6.552;2023-03-01T04:49:31;7.25;;;4.38;;
51724;SDS011;37801;53.224;6.552;2023-03-01T04:51:57;5.38;;;3.75;;
51724;SDS011;37801;53.224;6.552;2023-03-01T04:54:27;6.68;;;4.30;;
51724;SDS011;37801;53.224;6.552;2023-03-01T04:56:53;7.00;;;4.40;;
51724;SDS011;37801;53.224;6.552;2023-03-01T04:59:19;7.00;;;4.10;;
51724;SDS011;37801;53.224;6.552;2023-03-01T05:01:50;5.97;;;4.03;;
51724;SDS011;37801;53.224;6.552;2023-03-01T05:04:17;5.72;;;3.60;;
51724;SDS011;37801;53.224;6.552;2023-03-01T05:06:43;5.35;;;3.63;;
51724;SDS011;37801;53.224;6.552;2023-03-01T05:09:09;5.18;;;3.50;;
51724;SDS011;37801;53.224;6.552;2023-03-01T05:11:36;5.32;;;3.78;;
51724;SDS011;37801;53.224;6.552;2023-03-01T05:14:03;6.22;;;3.85;;
51724;SDS011;37801;53.224;6.552;2023-03-01T05:16:30;5.78;;;3.83;;
51724;SDS011;37801;53.224;6.552;2023-03-01T05:18:56;6.15;;;3.67;;
51724;SDS011;37801;53.224;6.552;2023-03-01T05:21:22;4.95;;;3.42;;
51724;SDS011;37801;53.224;6.552;2023-03-01T05:23:48;4.88;;;3.28;;
51724;SDS011;37801;53.224;6.552;2023-03-01T05:26:15;4.95;;;3.08;;
51724;SDS011;37801;53.224;6.552;2023-03-01T05:28:43;5.28;;;3.70;;
51724;SDS011;37801;53.224;6.552;2023-03-01T05:31:09;5.70;;;3.85;;
51724;SDS011;37801;53.224;6.552;2023-03-01T05:33:37;5.97;;;3.88;;
51724;SDS011;37801;53.224;6.552;2023-03-01T05:36:05;6.28;;;3.53;;
51724;SDS011;37801;53.224;6.552;2023-03-01T05:38:32;5.05;;;3.40;;
51724;SDS011;37801;53.224;6.552;2023-03-01T05:40:58;5.50;;;3.47;;
51724;SDS011;37801;53.224;6.552;2023-03-01T05:43:24;7.95;;;3.17;;
51724;SDS011;37801;53.224;6.552;2023-03-01T05:45:49;5.82;;;3.45;;
51724;SDS011;37801;53.224;6.552;2023-03-01T05:48:16;6.15;;;3.67;;
51724;SDS011;37801;53.224;6.552;2023-03-01T05:50:44;6.13;;;4.05;;
51724;SDS011;37801;53.224;6.552;2023-03-01T05:53:16;5.20;;;3.60;;
51724;SDS011;37801;53.224;6.552;2023-03-01T05:55:44;5.43;;;3.80;;
51724;SDS011;37801;53.224;6.552;2023-03-01T05:58:13;5.85;;;3.83;;
51724;SDS011;37801;53.224;6.552;2023-03-01T06:00:42;8.82;;;4.20;;
51724;SDS011;37801;53.224;6.552;2023-03-01T06:03:10;5.90;;;3.75;;
51724;SDS011;37801;53.224;6.552;2023-03-01T06:05:37;8.48;;;4.22;;
51724;SDS011;37801;53.224;6.552;2023-03-01T06:08:04;6.30;;;4.05;;
51724;SDS011;37801;53.224;6.552;2023-03-01T06:10:30;5.93;;;3.80;;
51724;SDS011;37801;53.224;6.552;2023-03-01T06:12:56;5.88;;;3.53;;
51724;SDS011;37801;53.224;6.552;2023-03-01T06:15:23;6.22;;;3.83;;
51724;SDS011;37801;53.224;6.552;2023-03-01T06:17:50;5.63;;;3.90;;
51724;SDS011;37801;53.224;6.552;2023-03-01T06:22:43;5.97;;;4.05;;
51724;SDS011;37801;53.224;6.552;2023-03-01T06:25:12;6.85;;;4.10;;
51724;SDS011;37801;53.224;6.552;2023-03-01T06:27:39;6.55;;;4.30;;
51724;SDS011;37801;53.224;6.552;2023-03-01T06:30:05;6.07;;;3.97;;
51724;SDS011;37801;53.224;6.552;2023-03-01T06:32:32;7.25;;;4.25;;
51724;SDS011;37801;53.224;6.552;2023-03-01T06:34:58;7.85;;;4.63;;
51724;SDS011;37801;53.224;6.552;2023-03-01T06:37:24;7.18;;;4.57;;
51724;SDS011;37801;53.224;6.552;2023-03-01T06:39:51;6.97;;;4.47;;
51724;SDS011;37801;53.224;6.552;2023-03-01T06:42:17;7.50;;;4.30;;
51724;SDS011;37801;53.224;6.552;2023-03-01T06:44:43;12.70;;;4.50;;
51724;SDS011;37801;53.224;6.552;2023-03-01T06:47:09;6.32;;;4.10;;
51724;SDS011;37801;53.224;6.552;2023-03-01T06:49:35;7.75;;;4.88;;
51724;SDS011;37801;53.224;6.552;2023-03-01T06:52:00;9.20;;;4.85;;
51724;SDS011;37801;53.224;6.552;2023-03-01T06:54:26;8.30;;;5.15;;
51724;SDS011;37801;53.224;6.552;2023-03-01T06:56:52;8.95;;;5.80;;
51724;SDS011;37801;53.224;6.552;2023-03-01T06:59:18;9.48;;;5.47;;
51724;SDS011;37801;53.224;6.552;2023-03-01T07:01:44;10.55;;;6.30;;
51724;SDS011;37801;53.224;6.552;2023-03-01T07:04:10;10.77;;;6.50;;
51724;SDS011;37801;53.224;6.552;2023-03-01T07:06:37;12.85;;;7.18;;
51724;SDS011;37801;53.224;6.552;2023-03-01T07:09:03;12.05;;;6.75;;
51724;SDS011;37801;53.224;6.552;2023-03-01T07:11:28;14.88;;;7.47;;
51724;SDS011;37801;53.224;6.552;2023-03-01T07:13:54;12.45;;;7.50;;
51724;SDS011;37801;53.224;6.552;2023-03-01T07:16:21;13.20;;;7.05;;
51724;SDS011;37801;53.224;6.552;2023-03-01T07:18:47;11.70;;;6.90;;
51724;SDS011;37801;53.224;6.552;2023-03-01T07:21:13;11.45;;;6.63;;
51724;SDS011;37801;53.224;6.552;2023-03-01T07:23:39;12.40;;;6.90;;
51724;SDS011;37801;53.224;6.552;2023-03-01T07:26:05;11.13;;;7.20;;
51724;SDS011;37801;53.224;6.552;2023-03-01T07:28:32;13.55;;;7.93;;
51724;SDS011;37801;53.224;6.552;2023-03-01T07:31:03;13.45;;;9.02;;
51724;SDS011;37801;53.224;6.552;2023-03-01T07:33:29;14.82;;;8.85;;
51724;SDS011;37801;53.224;6.552;2023-03-01T07:35:56;17.45;;;8.73;;
51724;SDS011;37801;53.224;6.552;2023-03-01T07:38:26;13.55;;;8.27;;
51724;SDS011;37801;53.224;6.552;2023-03-01T07:40:52;13.18;;;8.50;;
51724;SDS011;37801;53.224;6.552;2023-03-01T07:43:18;13.13;;;8.18;;
51724;SDS011;37801;53.224;6.552;2023-03-01T07:45:45;12.73;;;8.60;;
51724;SDS011;37801;53.224;6.552;2023-03-01T07:48:11;11.68;;;8.18;;
51724;SDS011;37801;53.224;6.552;2023-03-01T07:50:37;12.60;;;8.15;;
51724;SDS011;37801;53.224;6.552;2023-03-01T07:53:03;14.80;;;9.10;;
51724;SDS011;37801;53.224;6.552;2023-03-01T07:55:29;14.38;;;8.93;;
51724;SDS011;37801;53.224;6.552;2023-03-01T07:57:55;15.10;;;9.48;;
51724;SDS011;37801;53.224;6.552;2023-03-01T08:00:21;17.55;;;10.07;;
51724;SDS011;37801;53.224;6.552;2023-03-01T08:02:46;17.48;;;10.00;;
51724;SDS011;37801;53.224;6.552;2023-03-01T08:05:12;15.20;;;9.95;;
51724;SDS011;37801;53.224;6.552;2023-03-01T08:07:38;16.92;;;10.15;;
51724;SDS011;37801;53.224;6.552;2023-03-01T08:10:04;16.20;;;10.15;;
51724;SDS011;37801;53.224;6.552;2023-03-01T08:12:30;18.13;;;10.80;;
51724;SDS011;37801;53.224;6.552;2023-03-01T08:14:56;17.95;;;11.05;;
51724;SDS011;37801;53.224;6.552;2023-03-01T08:17:22;19.50;;;11.90;;
51724;SDS011;37801;53.224;6.552;2023-03-01T08:19:48;19.88;;;12.82;;
51724;SDS011;37801;53.224;6.552;2023-03-01T08:22:13;19.73;;;12.00;;
51724;SDS011;37801;53.224;6.552;2023-03-01T08:24:39;22.27;;;13.52;;
51724;SDS011;37801;53.224;6.552;2023-03-01T08:27:05;21.55;;;13.00;;
51724;SDS011;37801;53.224;6.552;2023-03-01T08:29:31;22.27;;;13.20;;
51724;SDS011;37801;53.224;6.552;2023-03-01T08:31:58;25.83;;;15.20;;
51724;SDS011;37801;53.224;6.552;2023-03-01T08:34:24;26.95;;;14.45;;
51724;SDS011;37801;53.224;6.552;2023-03-01T08:36:50;28.75;;;14.80;;
51724;SDS011;37801;53.224;6.552;2023-03-01T08:39:17;25.38;;;15.38;;
51724;SDS011;37801;53.224;6.552;2023-03-01T08:41:45;28.48;;;15.73;;
51724;SDS011;37801;53.224;6.552;2023-03-01T08:44:12;25.42;;;15.93;;
51724;SDS011;37801;53.224;6.552;2023-03-01T08:46:39;27.42;;;16.52;;
51724;SDS011;37801;53.224;6.552;2023-03-01T08:49:07;30.73;;;18.15;;
51724;SDS011;37801;53.224;6.552;2023-03-01T08:51:36;32.10;;;18.80;;
51724;SDS011;37801;53.224;6.552;2023-03-01T08:54:06;31.73;;;19.60;;
51724;SDS011;37801;53.224;6.552;2023-03-01T08:56:36;33.42;;;19.65;;
51724;SDS011;37801;53.224;6.552;2023-03-01T08:59:02;35.10;;;20.17;;
51724;SDS011;37801;53.224;6.552;2023-03-01T09:01:28;35.40;;;20.83;;
51724;SDS011;37801;53.224;6.552;2023-03-01T09:03:53;34.00;;;19.92;;
51724;SDS011;37801;53.224;6.552;2023-03-01T09:06:19;32.38;;;19.42;;
51724;SDS011;37801;53.224;6.552;2023-03-01T09:08:46;32.60;;;18.65;;
51724;SDS011;37801;53.224;6.552;2023-03-01T09:11:18;32.70;;;19.30;;
51724;SDS011;37801;53.224;6.552;2023-03-01T09:13:46;30.17;;;17.45;;
51724;SDS011;37801;53.224;6.552;2023-03-01T09:16:14;27.33;;;16.85;;
51724;SDS011;37801;53.224;6.552;2023-03-01T09:18:42;24.25;;;15.95;;
51724;SDS011;37801;53.224;6.552;2023-03-01T09:21:15;28.45;;;16.67;;
51724;SDS011;37801;53.224;6.552;2023-03-01T09:23:43;27.35;;;15.93;;
51724;SDS011;37801;53.224;6.552;2023-03-01T09:26:11;26.00;;;15.60;;
51724;SDS011;37801;53.224;6.552;2023-03-01T09:28:48;23.25;;;14.55;;
51724;SDS011;37801;53.224;6.552;2023-03-01T09:31:16;23.50;;;15.00;;
51724;SDS011;37801;53.224;6.552;2023-03-01T09:33:44;23.42;;;14.38;;
51724;SDS011;37801;53.224;6.552;2023-03-01T09:36:14;25.13;;;14.85;;
51724;SDS011;37801;53.224;6.552;2023-03-01T09:38:45;27.13;;;15.20;;
51724;SDS011;37801;53.224;6.552;2023-03-01T09:41:22;26.95;;;15.70;;
51724;SDS011;37801;53.224;6.552;2023-03-01T09:46:50;26.98;;;16.48;;
51724;SDS011;37801;53.224;6.552;2023-03-01T09:49:17;26.48;;;17.02;;
51724;SDS011;37801;53.224;6.552;2023-03-01T09:51:57;29.48;;;17.08;;
51724;SDS011;37801;53.224;6.552;2023-03-01T09:54:39;27.17;;;16.42;;
51724;SDS011;37801;53.224;6.552;2023-03-01T09:57:06;31.98;;;20.05;;
51724;SDS011;37801;53.224;6.552;2023-03-01T10:02:42;29.17;;;18.63;;
51724;SDS011;37801;53.224;6.552;2023-03-01T10:05:12;25.80;;;17.27;;
51724;SDS011;37801;53.224;6.552;2023-03-01T10:10:36;26.25;;;15.80;;
51724;SDS011;37801;53.224;6.552;2023-03-01T10:13:17;26.15;;;16.17;;
51724;SDS011;37801;53.224;6.552;2023-03-01T10:15:56;25.25;;;16.23;;
51724;SDS011;37801;53.224;6.552;2023-03-01T10:18:25;26.42;;;17.10;;
51724;SDS011;37801;53.224;6.552;2023-03-01T10:21:01;24.48;;;16.17;;
51724;SDS011;37801;53.224;6.552;2023-03-01T10:23:32;25.27;;;15.88;;
51724;SDS011;37801;53.224;6.552;2023-03-01T10:31:25;28.60;;;17.17;;
51724;SDS011;37801;53.224;6.552;2023-03-01T10:34:07;25.00;;;16.70;;
51724;SDS011;37801;53.224;6.552;2023-03-01T10:36:41;27.80;;;18.17;;
51724;SDS011;37801;53.224;6.552;2023-03-01T10:39:12;29.45;;;19.05;;
51724;SDS011;37801;53.224;6.552;2023-03-01T10:44:40;28.92;;;18.17;;
51724;SDS011;37801;53.224;6.552;2023-03-01T10:47:13;28.55;;;17.70;;
51724;SDS011;37801;53.224;6.552;2023-03-01T10:49:39;29.63;;;19.25;;
51724;SDS011;37801;53.224;6.552;2023-03-01T10:52:34;26.70;;;17.67;;
51724;SDS011;37801;53.224;6.552;2023-03-01T11:00:50;25.55;;;17.80;;
51724;SDS011;37801;53.224;6.552;2023-03-01T11:03:31;25.55;;;17.35;;
51724;SDS011;37801;53.224;6.552;2023-03-01T11:06:05;23.05;;;16.08;;
51724;SDS011;37801;53.224;6.552;2023-03-01T11:08:44;21.35;;;15.00;;
51724;SDS011;37801;53.224;6.552;2023-03-01T11:13:50;23.55;;;15.30;;
51724;SDS011;37801;53.224;6.552;2023-03-01T11:21:34;23.25;;;16.70;;
51724;SDS011;37801;53.224;6.552;2023-03-01T11:24:12;23.40;;;15.73;;
51724;SDS011;37801;53.224;6.552;2023-03-01T11:26:41;23.17;;;15.43;;
51724;SDS011;37801;53.224;6.552;2023-03-01T11:29:26;21.33;;;15.32;;
51724;SDS011;37801;53.224;6.552;2023-03-01T11:31:58;20.10;;;13.77;;
51724;SDS011;37801;53.224;6.552;2023-03-01T11:37:40;21.73;;;14.23;;
51724;SDS011;37801;53.224;6.552;2023-03-01T11:40:23;23.52;;;14.98;;
51724;SDS011;37801;53.224;6.552;2023-03-01T11:45:31;22.63;;;13.73;;
51724;SDS011;37801;53.224;6.552;2023-03-01T11:50:52;16.20;;;11.57;;
51724;SDS011;37801;53.224;6.552;2023-03-01T12:07:09;17.15;;;11.38;;
51724;SDS011;37801;53.224;6.552;2023-03-01T12:12:31;19.85;;;13.02;;
51724;SDS011;37801;53.224;6.552;2023-03-01T12:15:11;17.98;;;12.13;;
51724;SDS011;37801;53.224;6.552;2023-03-01T12:29:34;17.35;;;11.63;;
51724;SDS011;37801;53.224;6.552;2023-03-01T12:38:01;19.88;;;12.50;;
51724;SDS011;37801;53.224;6.552;2023-03-01T12:41:09;20.08;;;12.50;;
51724;SDS011;37801;53.224;6.552;2023-03-01T12:49:31;14.63;;;10.65;;
51724;SDS011;37801;53.224;6.552;2023-03-01T12:51:44;18.58;;;11.10;;
51724;SDS011;37801;53.224;6.552;2023-03-01T12:54:30;18.73;;;12.13;;
51724;SDS011;37801;53.224;6.552;2023-03-01T12:57:00;19.45;;;11.75;;
51724;SDS011;37801;53.224;6.552;2023-03-01T12:59:46;17.80;;;11.55;;
51724;SDS011;37801;53.224;6.552;2023-03-01T13:02:44;17.17;;;11.73;;
51724;SDS011;37801;53.224;6.552;2023-03-01T13:10:47;17.75;;;10.13;;
51724;SDS011;37801;53.224;6.552;2023-03-01T13:13:25;14.93;;;9.48;;
51724;SDS011;37801;53.224;6.552;2023-03-01T13:15:53;14.90;;;10.30;;
51724;SDS011;37801;53.224;6.552;2023-03-01T13:20:46;13.15;;;9.18;;
51724;SDS011;37801;53.224;6.552;2023-03-01T13:36:11;18.95;;;12.23;;
51724;SDS011;37801;53.224;6.552;2023-03-01T13:44:13;15.18;;;10.95;;
51724;SDS011;37801;53.224;6.552;2023-03-01T13:57:39;14.60;;;10.45;;
51724;SDS011;37801;53.224;6.552;2023-03-01T14:00:24;13.65;;;9.77;;
51724;SDS011;37801;53.224;6.552;2023-03-01T14:03:03;14.93;;;9.60;;
51724;SDS011;37801;53.224;6.552;2023-03-01T14:05:33;14.63;;;9.40;;
51724;SDS011;37801;53.224;6.552;2023-03-01T14:08:01;13.85;;;9.88;;
51724;SDS011;37801;53.224;6.552;2023-03-01T14:10:32;15.48;;;9.77;;
51724;SDS011;37801;53.224;6.552;2023-03-01T14:18:58;17.27;;;10.57;;
51724;SDS011;37801;53.224;6.552;2023-03-01T14:21:45;16.80;;;10.55;;
51724;SDS011;37801;53.224;6.552;2023-03-01T14:24:17;14.85;;;9.95;;
51724;SDS011;37801;53.224;6.552;2023-03-01T14:26:47;16.88;;;11.55;;
51724;SDS011;37801;53.224;6.552;2023-03-01T14:29:27;15.98;;;10.80;;
51724;SDS011;37801;53.224;6.552;2023-03-01T14:32:11;16.90;;;11.10;;
51724;SDS011;37801;53.224;6.552;2023-03-01T14:34:45;16.45;;;11.02;;
51724;SDS011;37801;53.224;6.552;2023-03-01T14:37:20;17.08;;;10.63;;
51724;SDS011;37801;53.224;6.552;2023-03-01T14:39:49;14.90;;;10.25;;
51724;SDS011;37801;53.224;6.552;2023-03-01T14:42:15;15.73;;;11.15;;
51724;SDS011;37801;53.224;6.552;2023-03-01T14:44:43;16.40;;;11.35;;
51724;SDS011;37801;53.224;6.552;2023-03-01T14:47:23;16.85;;;11.82;;
51724;SDS011;37801;53.224;6.552;2023-03-01T14:50:03;16.75;;;11.88;;
51724;SDS011;37801;53.224;6.552;2023-03-01T14:52:36;18.42;;;12.25;;
51724;SDS011;37801;53.224;6.552;2023-03-01T14:55:13;16.52;;;11.13;;
51724;SDS011;37801;53.224;6.552;2023-03-01T14:57:47;19.98;;;12.35;;
51724;SDS011;37801;53.224;6.552;2023-03-01T15:00:19;18.27;;;12.10;;
51724;SDS011;37801;53.224;6.552;2023-03-01T15:02:51;19.70;;;11.77;;
51724;SDS011;37801;53.224;6.552;2023-03-01T15:05:28;17.02;;;11.55;;
51724;SDS011;37801;53.224;6.552;2023-03-01T15:07:57;17.15;;;11.57;;
51724;SDS011;37801;53.224;6.552;2023-03-01T15:10:33;17.00;;;10.57;;
51724;SDS011;37801;53.224;6.552;2023-03-01T15:13:14;18.02;;;11.70;;
51724;SDS011;37801;53.224;6.552;2023-03-01T15:15:50;18.65;;;12.13;;
51724;SDS011;37801;53.224;6.552;2023-03-01T15:18:20;17.15;;;11.52;;
51724;SDS011;37801;53.224;6.552;2023-03-01T15:20:50;18.67;;;11.82;;
51724;SDS011;37801;53.224;6.552;2023-03-01T15:23:18;17.17;;;10.63;;
51724;SDS011;37801;53.224;6.552;2023-03-01T15:25:47;15.35;;;10.48;;
51724;SDS011;37801;53.224;6.552;2023-03-01T15:28:21;18.40;;;11.13;;
51724;SDS011;37801;53.224;6.552;2023-03-01T15:31:01;16.20;;;11.23;;
51724;SDS011;37801;53.224;6.552;2023-03-01T15:33:29;16.73;;;11.02;;
51724;SDS011;37801;53.224;6.552;2023-03-01T15:35:55;16.08;;;10.95;;
51724;SDS011;37801;53.224;6.552;2023-03-01T15:41:32;17.10;;;11.40;;
51724;SDS011;37801;53.224;6.552;2023-03-01T15:44:17;17.23;;;11.07;;
51724;SDS011;37801;53.224;6.552;2023-03-01T15:46:53;16.45;;;10.95;;
51724;SDS011;37801;53.224;6.552;2023-03-01T15:52:12;15.15;;;11.20;;
51724;SDS011;37801;53.224;6.552;2023-03-01T15:54:46;17.10;;;11.50;;
51724;SDS011;37801;53.224;6.552;2023-03-01T15:57:12;14.90;;;10.48;;
51724;SDS011;37801;53.224;6.552;2023-03-01T15:59:41;19.02;;;12.55;;
51724;SDS011;37801;53.224;6.552;2023-03-01T16:02:12;17.17;;;11.82;;
51724;SDS011;37801;53.224;6.552;2023-03-01T16:04:38;20.75;;;12.05;;
51724;SDS011;37801;53.224;6.552;2023-03-01T16:07:04;16.45;;;11.05;;
51724;SDS011;37801;53.224;6.552;2023-03-01T16:09:30;14.93;;;11.15;;
51724;SDS011;37801;53.224;6.552;2023-03-01T16:11:56;20.65;;;11.75;;
51724;SDS011;37801;53.224;6.552;2023-03-01T16:14:21;17.40;;;11.35;;
51724;SDS011;37801;53.224;6.552;2023-03-01T16:16:47;15.25;;;11.63;;
51724;SDS011;37801;53.224;6.552;2023-03-01T16:19:14;18.00;;;12.27;;
51724;SDS011;37801;53.224;6.552;2023-03-01T16:21:41;15.45;;;11.20;;
51724;SDS011;37801;53.224;6.552;2023-03-01T16:24:08;16.30;;;11.70;;
51724;SDS011;37801;53.224;6.552;2023-03-01T16:26:35;17.27;;;11.35;;
51724;SDS011;37801;53.224;6.552;2023-03-01T16:29:02;19.27;;;12.10;;
51724;SDS011;37801;53.224;6.552;2023-03-01T16:31:28;18.80;;;11.65;;
51724;SDS011;37801;53.224;6.552;2023-03-01T16:33:54;19.45;;;12.63;;
51724;SDS011;37801;53.224;6.552;2023-03-01T16:36:21;16.83;;;12.50;;
51724;SDS011;37801;53.224;6.552;2023-03-01T16:38:53;18.63;;;12.77;;
51724;SDS011;37801;53.224;6.552;2023-03-01T16:41:20;17.88;;;11.60;;
51724;SDS011;37801;53.224;6.552;2023-03-01T16:43:48;18.08;;;12.07;;
51724;SDS011;37801;53.224;6.552;2023-03-01T16:46:36;18.95;;;11.82;;
51724;SDS011;37801;53.224;6.552;2023-03-01T16:49:00;14.75;;;10.90;;
51724;SDS011;37801;53.224;6.552;2023-03-01T16:51:26;18.63;;;12.35;;
51724;SDS011;37801;53.224;6.552;2023-03-01T16:53:52;15.65;;;11.15;;
51724;SDS011;37801;53.224;6.552;2023-03-01T16:56:18;14.95;;;10.32;;
51724;SDS011;37801;53.224;6.552;2023-03-01T16:58:44;17.45;;;10.93;;
51724;SDS011;37801;53.224;6.552;2023-03-01T17:01:12;17.48;;;11.43;;
51724;SDS011;37801;53.224;6.552;2023-03-01T17:03:43;16.90;;;10.93;;
51724;SDS011;37801;53.224;6.552;2023-03-01T17:06:15;15.10;;;10.70;;
51724;SDS011;37801;53.224;6.552;2023-03-01T17:08:43;21.40;;;11.43;;
51724;SDS011;37801;53.224;6.552;2023-03-01T17:11:10;15.68;;;10.85;;